createdAt,value
2017-11-24T00:04:35.172Z,92.00
2017-11-24T00:09:37.851Z,92.20
2017-11-24T00:14:41.216Z,92.40
2017-11-24T00:19:43.898Z,92.50
2017-11-24T00:24:47.210Z,92.70
2017-11-24T00:29:49.862Z,93.30
2017-11-24T00:34:53.984Z,93.50
2017-11-24T00:39:56.777Z,93.50
2017-11-24T00:45:00.851Z,93.50
2017-11-24T00:50:03.441Z,93.70
2017-11-24T00:55:07.896Z,93.70
2017-11-24T01:00:10.590Z,93.70
2017-11-24T01:05:13.498Z,93.70
2017-11-24T01:10:16.187Z,93.70
2017-11-24T01:15:21.228Z,93.80
2017-11-24T01:20:24.659Z,93.90
2017-11-24T01:25:28.528Z,93.80
2017-11-24T01:30:31.145Z,93.80
2017-11-24T01:35:33.927Z,93.60
2017-11-24T01:40:36.551Z,93.60
2017-11-24T01:45:40.734Z,93.40
2017-11-24T01:50:43.348Z,93.40
2017-11-24T01:55:45.997Z,93.30
2017-11-24T02:00:48.634Z,92.70
2017-11-24T02:05:52.092Z,92.80
2017-11-24T02:10:54.725Z,92.70
2017-11-24T02:15:58.662Z,92.80
2017-11-24T02:21:02.056Z,92.80
2017-11-24T02:26:04.743Z,92.80
2017-11-24T02:31:07.362Z,92.60
2017-11-24T02:36:10.033Z,92.70
2017-11-24T02:41:12.665Z,92.80
2017-11-24T02:46:17.016Z,92.70
2017-11-24T02:51:20.407Z,92.70
2017-11-24T02:56:23.213Z,92.70
2017-11-24T03:01:25.835Z,92.70
2017-11-24T03:06:30.079Z,92.70
2017-11-24T03:11:32.700Z,92.70
2017-11-24T03:16:35.935Z,92.60
2017-11-24T03:21:38.561Z,92.60
2017-11-24T03:26:43.930Z,92.60
2017-11-24T03:31:47.308Z,92.50
2017-11-24T03:36:50.185Z,92.40
2017-11-24T03:41:52.787Z,92.50
2017-11-24T03:46:56.165Z,92.60
2017-11-24T03:51:59.559Z,92.60
2017-11-24T03:57:04.548Z,92.60
2017-11-24T04:02:07.922Z,92.70
2017-11-24T04:07:10.697Z,92.70
2017-11-24T04:12:13.348Z,92.60
2017-11-24T04:17:16.908Z,92.70
2017-11-24T04:22:19.552Z,92.70
2017-11-24T04:27:22.820Z,92.80
2017-11-24T04:32:25.445Z,92.60
2017-11-24T04:37:29.017Z,92.60
2017-11-24T04:42:32.485Z,92.70
2017-11-24T04:47:35.752Z,92.60
2017-11-24T04:52:39.175Z,92.50
2017-11-24T04:57:41.796Z,92.50
2017-11-24T05:02:44.414Z,92.60
2017-11-24T05:07:47.875Z,92.50
2017-11-24T05:12:51.279Z,92.30
2017-11-24T05:17:54.135Z,92.30
2017-11-24T05:22:56.897Z,92.20
2017-11-24T05:28:00.328Z,92.20
2017-11-24T05:33:03.711Z,92.10
2017-11-24T05:38:06.365Z,92.10
2017-11-24T05:43:08.984Z,92.20
2017-11-24T05:48:12.163Z,92.60
2017-11-24T05:53:14.762Z,92.80
2017-11-24T05:58:18.356Z,92.90
2017-11-24T06:03:21.752Z,92.90
2017-11-24T06:08:24.439Z,92.90
2017-11-24T06:13:27.068Z,92.90
2017-11-24T06:18:30.788Z,92.60
2017-11-24T06:23:33.408Z,92.60
2017-11-24T06:28:36.906Z,92.70
2017-11-24T06:33:40.299Z,92.60
2017-11-24T06:38:43.981Z,92.40
2017-11-24T06:43:46.591Z,92.40
2017-11-24T06:48:49.187Z,92.40
2017-11-24T06:53:51.807Z,92.30
2017-11-24T06:58:54.673Z,92.30
2017-11-24T07:03:57.338Z,92.30
2017-11-24T07:09:00.368Z,92.20
2017-11-24T07:14:03.964Z,92.20
2017-11-24T07:19:07.527Z,92.20
2017-11-24T07:24:10.172Z,92.30
2017-11-24T07:29:13.763Z,92.40
2017-11-24T07:34:16.425Z,92.40
2017-11-24T07:39:20.836Z,92.30
2017-11-24T07:44:23.439Z,92.30
2017-11-24T07:49:26.504Z,91.70
2017-11-24T07:54:29.093Z,91.60
2017-11-24T07:59:32.265Z,91.40
2017-11-24T08:04:34.998Z,91.20
2017-11-24T08:09:39.325Z,91.10
2017-11-24T08:14:42.725Z,90.60
2017-11-24T08:19:45.501Z,90.60
2017-11-24T08:24:48.128Z,90.70
2017-11-24T08:29:51.596Z,90.50
2017-11-24T08:34:54.230Z,90.70
2017-11-24T08:39:57.088Z,90.30
2017-11-24T08:44:59.697Z,90.30
2017-11-24T08:50:03.075Z,89.70
2017-11-24T08:55:06.454Z,85.10
2017-11-24T09:00:09.325Z,85.10
2017-11-24T09:05:11.919Z,82.70
2017-11-24T09:10:15.192Z,79.90
2017-11-24T09:15:17.806Z,77.90
2017-11-24T09:20:22.036Z,75.10
2017-11-24T09:25:25.419Z,77.70
2017-11-24T09:30:28.193Z,77.70
2017-11-24T09:35:30.823Z,79.80
2017-11-24T09:40:33.982Z,82.20
2017-11-24T09:45:37.384Z,82.10
2017-11-24T09:50:41.411Z,78.00
2017-11-24T09:55:44.011Z,78.00
2017-11-24T10:00:47.826Z,81.60
2017-11-24T10:05:50.455Z,81.60
2017-11-24T10:10:53.117Z,80.70
2017-11-24T10:15:55.720Z,82.00
2017-11-24T10:21:04.299Z,80.50
2017-11-24T10:26:06.928Z,78.80
2017-11-24T10:31:09.778Z,80.20
2017-11-24T10:36:13.159Z,82.30
2017-11-24T10:41:16.250Z,82.30
2017-11-24T10:46:18.876Z,82.50
2017-11-24T10:51:21.859Z,82.60
2017-11-24T10:56:24.488Z,82.80
2017-11-24T11:01:27.874Z,83.10
2017-11-24T11:06:30.481Z,82.30
2017-11-24T11:11:33.245Z,81.60
2017-11-24T11:16:35.864Z,81.30
2017-11-24T11:21:38.629Z,81.70
2017-11-24T11:26:42.016Z,82.40
2017-11-24T11:31:44.756Z,82.30
2017-11-24T11:36:47.393Z,82.30
2017-11-24T11:41:50.265Z,82.20
2017-11-24T11:46:52.894Z,82.30
2017-11-24T11:51:56.259Z,81.10
2017-11-24T11:56:59.667Z,81.40
2017-11-24T12:02:02.734Z,81.30
2017-11-24T12:07:05.363Z,82.20
2017-11-24T12:12:08.826Z,83.10
2017-11-24T12:17:11.436Z,83.00
2017-11-24T12:22:15.016Z,82.80
2017-11-24T12:27:18.408Z,82.70
2017-11-24T12:32:21.462Z,82.10
2017-11-24T12:37:24.852Z,77.60
2017-11-24T12:42:28.612Z,75.30
2017-11-24T12:47:31.252Z,75.50
2017-11-24T12:52:34.342Z,75.80
2017-11-24T12:57:36.980Z,78.40
2017-11-24T13:02:39.834Z,79.30
2017-11-24T13:07:42.491Z,81.00
2017-11-24T13:12:46.460Z,82.30
2017-11-24T13:17:49.109Z,82.20
2017-11-24T13:22:52.147Z,82.70
2017-11-24T13:27:55.548Z,83.60
2017-11-24T13:32:59.094Z,83.90
2017-11-24T13:38:01.789Z,83.80
2017-11-24T13:43:04.561Z,84.10
2017-11-24T13:48:07.188Z,84.20
2017-11-24T13:53:10.824Z,84.80
2017-11-24T13:58:13.454Z,84.80
2017-11-24T14:03:16.221Z,84.20
2017-11-24T14:08:18.866Z,84.30
2017-11-24T14:13:21.636Z,84.80
2017-11-24T14:18:24.269Z,85.00
2017-11-24T14:23:27.219Z,85.40
2017-11-24T14:28:29.811Z,86.10
2017-11-24T14:33:33.948Z,87.10
2017-11-24T14:38:37.361Z,87.30
2017-11-24T14:43:41.401Z,87.50
2017-11-24T14:48:44.019Z,87.50
2017-11-24T14:53:47.306Z,87.80
2017-11-24T14:58:50.725Z,87.80
2017-11-24T15:03:54.554Z,87.50
2017-11-24T15:08:57.954Z,87.40
2017-11-24T15:14:01.914Z,87.40
2017-11-24T15:19:04.549Z,87.40
2017-11-24T15:24:07.384Z,87.40
2017-11-24T15:29:10.787Z,87.60
2017-11-24T15:34:13.952Z,87.60
2017-11-24T15:39:16.592Z,87.50
2017-11-24T15:44:19.245Z,87.80
2017-11-24T15:49:21.875Z,87.70
2017-11-24T15:54:25.451Z,88.00
2017-11-24T15:59:28.079Z,88.00
2017-11-24T16:04:31.641Z,88.00
2017-11-24T16:09:34.249Z,88.00
2017-11-24T16:14:38.601Z,88.40
2017-11-24T16:19:42.014Z,88.50
2017-11-24T16:24:47.128Z,88.40
2017-11-24T16:29:49.831Z,88.40
2017-11-24T16:34:52.970Z,88.50
2017-11-24T16:39:56.398Z,88.80
2017-11-24T16:45:00.624Z,89.00
2017-11-24T16:50:04.042Z,88.90
2017-11-24T16:55:07.993Z,88.70
2017-11-24T17:00:10.691Z,88.50
2017-11-24T17:05:14.131Z,90.30
2017-11-24T17:10:16.773Z,90.30
2017-11-24T17:15:19.737Z,92.20
2017-11-24T17:20:22.369Z,92.70
2017-11-24T17:25:25.729Z,92.80
2017-11-24T17:30:29.120Z,93.30
2017-11-24T17:35:31.919Z,93.40
2017-11-24T17:40:34.552Z,93.90
2017-11-24T17:45:37.225Z,93.80
2017-11-24T17:50:39.875Z,94.70
2017-11-24T17:55:43.473Z,95.60
2017-11-24T18:00:46.087Z,96.40
2017-11-24T18:05:48.952Z,97.60
2017-11-24T18:10:52.348Z,98.50
2017-11-24T18:15:55.566Z,98.40
2017-11-24T18:20:58.221Z,98.90
2017-11-24T18:26:01.720Z,99.10
2017-11-24T18:31:04.379Z,99.20
2017-11-24T18:36:07.703Z,99.30
2017-11-24T18:41:10.352Z,99.50
2017-11-24T18:46:13.976Z,99.30
2017-11-24T18:51:16.626Z,99.30
2017-11-24T18:56:20.183Z,99.20
2017-11-24T19:01:22.814Z,99.90
2017-11-24T19:06:25.456Z,99.70
2017-11-24T19:11:28.853Z,99.90
2017-11-24T19:16:31.607Z,99.90
2017-11-24T19:21:34.246Z,99.90
2017-11-24T19:26:37.125Z,99.90
2017-11-24T19:31:39.770Z,99.90
2017-11-24T19:36:44.018Z,99.90
2017-11-24T19:41:47.467Z,99.90
2017-11-24T19:46:50.823Z,99.90
2017-11-24T19:51:53.443Z,99.90
2017-11-24T19:56:57.597Z,99.90
2017-11-24T20:02:00.222Z,99.90
2017-11-24T20:07:03.581Z,99.90
2017-11-24T20:12:06.211Z,99.90
2017-11-24T20:17:09.348Z,99.90
2017-11-24T20:22:11.957Z,99.90
2017-11-24T20:27:15.417Z,99.30
2017-11-24T20:32:18.954Z,99.50
2017-11-24T20:37:23.010Z,99.30
2017-11-24T20:42:25.667Z,99.30
2017-11-24T20:47:30.007Z,99.40
2017-11-24T20:52:33.436Z,99.40
2017-11-24T20:57:36.974Z,99.20
2017-11-24T21:02:39.588Z,99.20
2017-11-24T21:07:42.348Z,98.90
2017-11-24T21:12:45.809Z,99.10
2017-11-24T21:17:50.125Z,99.00
2017-11-24T21:22:53.665Z,99.40
2017-11-24T21:27:57.469Z,99.30
2017-11-24T21:33:01.550Z,98.80
2017-11-24T21:38:06.067Z,98.90
2017-11-24T21:43:09.378Z,99.20
2017-11-24T21:48:13.794Z,99.30
2017-11-24T21:53:17.445Z,99.40
2017-11-24T21:58:22.281Z,99.40
2017-11-24T22:03:26.594Z,99.50
2017-11-24T22:08:31.044Z,99.90
2017-11-24T22:13:33.954Z,99.90
2017-11-24T22:18:37.758Z,99.90
2017-11-24T22:23:40.425Z,99.90
2017-11-24T22:28:43.527Z,99.90
2017-11-24T22:33:46.292Z,99.90
2017-11-24T22:38:49.894Z,99.90
2017-11-24T22:43:53.312Z,99.90
2017-11-24T22:48:56.956Z,99.90
2017-11-24T22:53:59.682Z,99.90
2017-11-24T22:59:03.186Z,99.90
2017-11-24T23:04:05.860Z,99.90
2017-11-24T23:09:09.575Z,99.90
2017-11-24T23:14:12.211Z,99.90
2017-11-24T23:19:16.344Z,99.90
2017-11-24T23:24:18.958Z,99.90
2017-11-24T23:29:22.533Z,99.90
2017-11-24T23:34:25.933Z,99.90
2017-11-24T23:39:29.006Z,99.90
2017-11-24T23:44:31.593Z,99.90
2017-11-24T23:49:34.948Z,99.90
2017-11-24T23:54:37.575Z,99.90
2017-11-24T23:59:41.828Z,99.90
